Time;durP1;ratioP1;P1;durP2;ratioP2;P2;SDS_P1;SDS_P2;PMS_P1;PMS_P2;Temp;Humidity;BMP_temperature;BMP_pressure;BME280_temperature;BME280_humidity;BME280_pressure;Samples;Min_cycle;Max_cycle;Signal;HPM_P1;HPM_P2
2023/09/19 00:03:50;;;;;;;1.47;1.07;;;19.90;46.60;;;;;;10252919;28;20231;-75
2023/09/19 00:08:54;;;;;;;1.40;1.30;;;19.90;46.40;;;;;;10257874;28;20886;-75
2023/09/19 00:14:02;;;;;;;1.83;1.20;;;19.90;46.40;;;;;;10259836;28;20692;-75
2023/09/19 00:19:08;;;;;;;2.20;1.30;;;19.90;46.60;;;;;;10260375;28;20231;-75
2023/09/19 00:24:12;;;;;;;1.30;1.20;;;20.00;46.30;;;;;;10254070;28;20251;-75
2023/09/19 00:29:17;;;;;;;1.50;1.40;;;20.10;46.30;;;;;;10247242;28;20224;-75
2023/09/19 00:34:20;;;;;;;1.77;1.30;;;20.20;46.30;;;;;;10253068;28;20792;-75
2023/09/19 00:39:25;;;;;;;1.50;1.40;;;20.30;46.00;;;;;;10252735;28;20244;-75
2023/09/19 00:44:30;;;;;;;1.97;1.40;;;20.30;45.90;;;;;;10256808;28;20236;-75
2023/09/19 00:49:34;;;;;;;1.43;1.33;;;20.40;45.70;;;;;;10252362;28;20229;-75
2023/09/19 00:54:37;;;;;;;1.60;1.50;;;20.50;45.50;;;;;;10258130;28;20232;-75
2023/09/19 00:59:42;;;;;;;1.40;1.30;;;20.60;45.40;;;;;;10261699;28;20235;-75
2023/09/19 01:04:46;;;;;;;1.33;1.23;;;20.60;45.30;;;;;;10262754;28;20238;-75
2023/09/19 01:09:50;;;;;;;2.00;1.30;;;20.70;45.30;;;;;;10263886;28;20268;-74
2023/09/19 01:15:03;;;;;;;1.47;1.37;;;20.70;45.10;;;;;;10266816;28;20231;-75
2023/09/19 01:20:33;;;;;;;1.20;1.17;;;20.80;45.00;;;;;;10260711;28;20220;-75
2023/09/19 01:26:16;;;;;;;1.67;1.00;;;20.80;45.00;;;;;;10261849;28;20990;-75
2023/09/19 01:31:23;;;;;;;0.90;0.90;;;20.80;44.90;;;;;;10262328;28;20252;-74
2023/09/19 01:36:28;;;;;;;1.10;1.10;;;20.80;44.80;;;;;;10261589;28;20239;-75
2023/09/19 01:41:46;;;;;;;2.30;1.30;;;20.80;44.70;;;;;;10258209;28;20243;-75
2023/09/19 01:46:50;;;;;;;3.63;1.20;;;20.80;44.60;;;;;;10256901;28;20240;-75
2023/09/19 01:52:02;;;;;;;1.27;1.10;;;20.80;44.60;;;;;;10260547;28;20239;-75
2023/09/19 01:57:11;;;;;;;1.27;1.10;;;20.80;44.30;;;;;;10263256;28;20224;-75
2023/09/19 02:02:18;;;;;;;1.30;1.20;;;20.80;44.30;;;;;;10255325;28;20316;-75
2023/09/19 02:07:22;;;;;;;1.60;1.10;;;20.80;44.30;;;;;;10260089;28;20417;-75
2023/09/19 02:12:25;;;;;;;1.20;1.10;;;20.80;44.30;;;;;;10256184;28;20255;-75
2023/09/19 02:17:31;;;;;;;1.23;1.10;;;20.80;44.30;;;;;;10258021;28;20753;-75
2023/09/19 02:22:34;;;;;;;1.17;1.10;;;20.80;44.20;;;;;;10256961;28;20231;-75
2023/09/19 02:27:37;;;;;;;1.10;1.00;;;20.80;44.20;;;;;;10259010;28;20322;-76
2023/09/19 02:32:42;;;;;;;1.27;1.20;;;20.80;44.20;;;;;;10263507;28;20724;-75
2023/09/19 02:37:45;;;;;;;1.93;0.93;;;20.80;43.90;;;;;;10266684;28;20232;-75
2023/09/19 02:42:49;;;;;;;1.00;0.90;;;20.80;44.00;;;;;;10252840;28;20232;-75
2023/09/19 02:47:54;;;;;;;1.00;0.90;;;20.70;44.00;;;;;;10259061;28;20231;-74
2023/09/19 02:52:58;;;;;;;2.13;1.30;;;20.70;43.80;;;;;;10256010;28;20254;-75
2023/09/19 02:58:05;;;;;;;1.13;1.03;;;20.70;43.80;;;;;;10261304;28;20234;-75
2023/09/19 03:03:09;;;;;;;0.90;0.90;;;20.70;43.80;;;;;;10257710;28;20247;-75
2023/09/19 03:08:14;;;;;;;1.13;1.03;;;20.70;43.70;;;;;;10266101;28;20230;-75
2023/09/19 03:13:18;;;;;;;1.30;1.10;;;20.70;43.80;;;;;;10256864;28;20228;-75
2023/09/19 03:18:23;;;;;;;1.10;1.03;;;20.60;43.70;;;;;;10256150;28;20321;-75
2023/09/19 03:23:27;;;;;;;2.33;1.20;;;20.60;43.60;;;;;;10259182;28;20227;-75
2023/09/19 03:28:31;;;;;;;3.17;1.03;;;20.70;43.80;;;;;;10254733;28;20236;-75
2023/09/19 03:33:36;;;;;;;1.73;1.10;;;20.60;43.90;;;;;;10261242;28;20237;-75
2023/09/19 03:38:39;;;;;;;2.53;1.50;;;20.60;44.20;;;;;;10255501;28;20270;-75
2023/09/19 03:43:42;;;;;;;1.77;1.50;;;20.60;44.40;;;;;;10254234;28;20242;-75
2023/09/19 03:48:47;;;;;;;1.50;1.40;;;20.60;44.50;;;;;;10256019;28;20242;-75
2023/09/19 03:53:50;;;;;;;2.33;1.43;;;20.60;44.60;;;;;;10256203;28;20242;-74
2023/09/19 03:58:53;;;;;;;1.73;1.63;;;20.60;44.50;;;;;;10257616;28;20236;-74
2023/09/19 04:03:58;;;;;;;1.73;1.63;;;20.60;44.60;;;;;;10252805;28;20251;-74
2023/09/19 04:09:01;;;;;;;1.80;1.70;;;20.60;44.80;;;;;;10258574;28;20232;-74
2023/09/19 04:14:05;;;;;;;1.73;1.60;;;20.60;44.70;;;;;;10257720;28;20236;-74
2023/09/19 04:19:09;;;;;;;1.53;1.43;;;20.60;44.80;;;;;;10254622;28;20236;-74
2023/09/19 04:24:13;;;;;;;1.77;1.60;;;20.60;44.80;;;;;;10250584;28;20255;-75
2023/09/19 04:29:19;;;;;;;3.30;1.90;;;20.60;44.80;;;;;;10263501;28;20231;-74
2023/09/19 04:34:24;;;;;;;1.80;1.40;;;20.60;44.80;;;;;;10258048;28;20374;-74
2023/09/19 04:39:27;;;;;;;1.50;1.40;;;20.60;45.10;;;;;;10253583;28;20236;-74
2023/09/19 04:44:31;;;;;;;1.87;1.37;;;20.60;44.90;;;;;;10253559;28;20377;-74
2023/09/19 04:49:35;;;;;;;1.87;1.50;;;20.60;44.80;;;;;;10256086;28;20232;-74
2023/09/19 04:54:41;;;;;;;1.80;1.50;;;20.60;44.80;;;;;;10250238;28;20236;-75
2023/09/19 04:59:44;;;;;;;2.10;1.50;;;20.60;44.70;;;;;;10258383;28;20245;-75
2023/09/19 05:04:49;;;;;;;2.17;1.50;;;20.60;44.60;;;;;;10245190;28;20246;-75
2023/09/19 05:09:52;;;;;;;1.50;1.40;;;20.60;44.80;;;;;;10252935;28;20655;-75
2023/09/19 05:14:58;;;;;;;2.10;1.40;;;20.60;44.80;;;;;;10248233;28;20582;-75
2023/09/19 05:20:15;;;;;;;3.63;1.70;;;20.60;44.70;;;;;;10248719;28;20840;-74
2023/09/19 05:25:23;;;;;;;3.13;1.70;;;20.60;44.80;;;;;;10254268;28;20219;-74
2023/09/19 05:30:29;;;;;;;3.53;1.80;;;20.60;44.90;;;;;;10250589;28;20251;-75
2023/09/19 05:35:34;;;;;;;1.77;1.67;;;20.50;44.90;;;;;;10248346;28;20234;-75
2023/09/19 05:40:38;;;;;;;1.70;1.60;;;20.50;45.20;;;;;;10252004;28;20278;-75
2023/09/19 05:45:42;;;;;;;2.47;1.57;;;20.40;45.10;;;;;;10258226;28;20235;-75
2023/09/19 05:50:48;;;;;;;1.60;1.50;;;20.40;45.30;;;;;;10257832;28;20790;-75
2023/09/19 05:55:53;;;;;;;2.47;1.40;;;20.30;45.50;;;;;;10257375;28;20323;-74
2023/09/19 06:00:57;;;;;;;1.67;1.50;;;20.30;45.50;;;;;;10260153;28;20323;-75
2023/09/19 06:06:02;;;;;;;1.60;1.50;;;20.20;45.40;;;;;;10258286;28;20239;-75
2023/09/19 06:11:09;;;;;;;1.80;1.40;;;20.20;45.60;;;;;;10253193;28;20236;-75
2023/09/19 06:16:12;;;;;;;3.17;1.77;;;20.30;45.60;;;;;;10260718;28;20224;-76
2023/09/19 06:21:16;;;;;;;1.87;1.50;;;20.10;45.50;;;;;;10255532;28;21099;-75
2023/09/19 06:26:20;;;;;;;1.67;1.53;;;20.30;45.90;;;;;;10260218;28;20793;-76
2023/09/19 06:31:26;;;;;;;1.50;1.40;;;20.30;45.80;;;;;;10257341;28;20228;-75
2023/09/19 06:36:31;;;;;;;1.37;1.27;;;20.30;45.70;;;;;;10262976;28;20698;-75
2023/09/19 06:41:34;;;;;;;1.80;1.70;;;20.40;46.00;;;;;;10258616;28;20236;-75
2023/09/19 06:46:39;;;;;;;2.70;1.67;;;20.50;45.90;;;;;;10257792;28;20234;-75
2023/09/19 06:51:44;;;;;;;1.57;1.47;;;20.60;45.70;;;;;;10257913;28;20374;-75
2023/09/19 06:56:47;;;;;;;1.83;1.60;;;20.70;45.60;;;;;;10257674;28;20238;-76
2023/09/19 07:01:51;;;;;;;1.60;1.50;;;20.70;45.50;;;;;;10255179;28;20219;-75
2023/09/19 07:06:58;;;;;;;1.93;1.53;;;20.80;45.50;;;;;;10251885;28;20291;-76
2023/09/19 07:12:01;;;;;;;1.40;1.30;;;21.00;45.70;;;;;;10257792;28;20949;-77
2023/09/19 07:17:08;;;;;;;1.80;1.60;;;21.10;45.50;;;;;;10245394;28;20220;-76
2023/09/19 07:22:13;;;;;;;1.87;1.60;;;21.30;45.70;;;;;;10248789;28;20703;-77
2023/09/19 07:27:16;;;;;;;1.90;1.43;;;21.40;44.70;;;;;;10255518;28;20234;-76
2023/09/19 07:32:19;;;;;;;1.10;1.00;;;21.50;44.90;;;;;;10257559;28;20278;-76
2023/09/19 07:37:25;;;;;;;1.60;1.37;;;21.60;44.80;;;;;;10258067;28;20690;-76
2023/09/19 07:42:29;;;;;;;1.63;1.37;;;21.60;44.40;;;;;;10256399;28;20239;-77
2023/09/19 07:47:33;;;;;;;1.30;1.20;;;21.70;44.50;;;;;;10256922;28;20318;-76
2023/09/19 07:52:39;;;;;;;1.37;1.27;;;21.80;44.60;;;;;;10255106;28;20234;-76
2023/09/19 07:57:42;;;;;;;1.30;1.20;;;21.90;43.70;;;;;;10257849;28;20232;-76
2023/09/19 08:02:45;;;;;;;1.80;1.40;;;22.00;44.10;;;;;;10254080;28;20242;-76
2023/09/19 08:07:56;;;;;;;1.20;1.10;;;22.00;44.20;;;;;;10253951;28;20902;-76
2023/09/19 08:13:00;;;;;;;1.63;1.10;;;22.20;43.80;;;;;;10250151;28;20238;-77
2023/09/19 08:18:03;;;;;;;1.20;1.10;;;22.30;43.80;;;;;;10251525;28;20239;-76
2023/09/19 08:23:08;;;;;;;2.77;1.30;;;22.40;43.30;;;;;;10248110;28;20940;-75
2023/09/19 08:28:13;;;;;;;1.73;1.27;;;22.50;42.80;;;;;;10251044;28;20228;-76
2023/09/19 08:33:17;;;;;;;3.23;1.10;;;22.60;43.10;;;;;;10253158;28;20946;-76
2023/09/19 08:38:21;;;;;;;1.57;1.10;;;22.60;43.10;;;;;;10249088;28;20272;-76
2023/09/19 08:43:29;;;;;;;1.20;1.10;;;22.70;43.30;;;;;;10250376;28;20323;-74
2023/09/19 08:48:33;;;;;;;1.20;1.10;;;23.00;43.50;;;;;;10251624;28;20945;-74
2023/09/19 08:53:46;;;;;;;1.20;1.13;;;23.20;42.70;;;;;;10250987;28;20247;-74
2023/09/19 08:58:54;;;;;;;1.70;1.20;;;23.50;41.30;;;;;;10253416;28;20747;-72
2023/09/19 09:03:58;;;;;;;1.30;1.20;;;23.60;40.50;;;;;;10251357;28;20235;-76
2023/09/19 09:09:04;;;;;;;1.50;1.40;;;23.70;41.10;;;;;;10255185;28;20307;-77
2023/09/19 09:14:08;;;;;;;1.20;1.10;;;23.60;40.10;;;;;;10256720;28;20238;-77
2023/09/19 09:19:13;;;;;;;2.43;1.23;;;23.50;41.00;;;;;;10265067;28;20605;-78
2023/09/19 09:24:33;;;;;;;1.53;1.43;;;23.40;40.70;;;;;;10264819;28;20798;-77
2023/09/19 09:29:43;;;;;;;1.60;1.50;;;23.30;40.90;;;;;;10256482;28;20258;-76
2023/09/19 09:34:47;;;;;;;0.93;0.73;;;23.10;41.00;;;;;;10250355;28;20368;-76
2023/09/19 09:39:56;;;;;;;0.90;0.90;;;22.90;40.00;;;;;;10255169;28;20622;-74
2023/09/19 09:45:14;;;;;;;1.07;0.90;;;22.60;40.20;;;;;;10255628;28;20236;-74
2023/09/19 09:50:44;;;;;;;0.90;0.90;;;22.20;40.10;;;;;;10245568;28;20685;-74
2023/09/19 09:56:05;;;;;;;1.10;1.00;;;21.90;40.90;;;;;;10254585;28;20710;-74
2023/09/19 10:01:15;;;;;;;0.93;0.90;;;21.70;41.90;;;;;;10249014;28;20231;-74
2023/09/19 10:06:30;;;;;;;0.90;0.90;;;21.60;41.90;;;;;;10250745;28;20247;-74
2023/09/19 10:11:37;;;;;;;1.43;0.90;;;21.50;42.00;;;;;;10242037;28;20359;-75
2023/09/19 10:16:47;;;;;;;1.10;1.00;;;21.30;41.80;;;;;;10248951;28;20240;-75
2023/09/19 10:21:52;;;;;;;0.90;0.90;;;21.10;42.90;;;;;;10247579;28;20239;-75
2023/09/19 10:26:57;;;;;;;1.20;1.10;;;20.90;42.40;;;;;;10243345;28;20246;-75
2023/09/19 10:32:04;;;;;;;1.07;0.90;;;20.80;43.00;;;;;;10246362;28;20234;-75
2023/09/19 10:37:09;;;;;;;1.23;1.13;;;20.80;43.60;;;;;;10242955;28;20232;-75
2023/09/19 10:42:19;;;;;;;2.70;1.20;;;20.80;44.00;;;;;;10249130;28;20234;-75
2023/09/19 10:47:24;;;;;;;1.30;1.20;;;20.90;44.20;;;;;;10231027;28;20235;-75
2023/09/19 10:52:28;;;;;;;1.40;1.30;;;21.00;44.40;;;;;;10250020;28;20240;-74
2023/09/19 10:57:34;;;;;;;1.50;1.40;;;21.10;44.30;;;;;;10230977;28;22204;-75
2023/09/19 11:02:37;;;;;;;1.87;1.47;;;21.30;44.10;;;;;;10256750;28;20331;-74
2023/09/19 11:07:59;;;;;;;1.73;1.63;;;21.30;43.90;;;;;;10260209;28;20676;-75
2023/09/19 11:13:25;;;;;;;2.10;1.33;;;21.50;43.70;;;;;;10256447;28;20863;-75
2023/09/19 11:18:57;;;;;;;2.40;1.60;;;21.60;43.60;;;;;;10263052;28;20739;-75
2023/09/19 11:24:36;;;;;;;1.70;1.60;;;21.80;42.60;;;;;;10267153;28;21093;-75
2023/09/19 11:29:41;;;;;;;2.83;1.50;;;21.90;43.40;;;;;;10264299;28;20235;-75
2023/09/19 11:34:48;;;;;;;1.77;1.37;;;22.00;42.40;;;;;;10258576;28;20746;-75
2023/09/19 11:40:13;;;;;;;1.73;1.53;;;22.10;42.00;;;;;;10264315;28;20240;-75
2023/09/19 11:45:57;;;;;;;1.53;1.43;;;22.30;42.60;;;;;;10266747;28;20230;-75
2023/09/19 11:51:07;;;;;;;1.67;1.50;;;22.40;42.10;;;;;;10268115;28;20231;-74
2023/09/19 11:56:11;;;;;;;1.20;1.10;;;22.70;41.30;;;;;;10265554;28;20231;-75
2023/09/19 12:01:20;;;;;;;1.93;1.30;;;22.90;41.30;;;;;;10262720;28;20259;-75
2023/09/19 12:06:26;;;;;;;1.93;1.20;;;23.00;40.30;;;;;;10258983;28;20258;-75
2023/09/19 12:11:33;;;;;;;11.27;9.43;;;23.20;40.00;;;;;;10251914;28;20715;-75
2023/09/19 12:16:37;;;;;;;4.10;2.70;;;23.30;40.20;;;;;;10257935;28;20247;-75
2023/09/19 12:21:43;;;;;;;2.97;1.80;;;23.40;40.80;;;;;;10246116;28;20240;-75
2023/09/19 12:26:51;;;;;;;2.40;1.50;;;23.50;39.60;;;;;;10258062;28;20348;-75
2023/09/19 12:31:57;;;;;;;2.30;1.10;;;23.60;39.70;;;;;;10255120;28;20267;-74
2023/09/19 12:37:14;;;;;;;1.40;1.30;;;23.60;39.70;;;;;;10261771;28;20669;-75
2023/09/19 12:42:20;;;;;;;1.33;1.23;;;23.70;39.10;;;;;;10257180;28;20223;-75
2023/09/19 12:47:24;;;;;;;1.20;1.10;;;23.70;39.80;;;;;;10264502;28;20754;-74
2023/09/19 12:52:36;;;;;;;2.80;1.33;;;23.70;39.70;;;;;;10263449;28;20267;-75
2023/09/19 12:57:41;;;;;;;2.70;1.30;;;23.70;38.10;;;;;;10258918;28;20338;-74
2023/09/19 13:03:21;;;;;;;1.23;0.83;;;23.80;39.70;;;;;;10255401;28;20619;-74
2023/09/19 13:08:30;;;;;;;1.30;1.20;;;23.80;39.10;;;;;;10264238;28;20291;-74
2023/09/19 13:13:36;;;;;;;1.30;1.20;;;23.90;38.80;;;;;;10247794;28;20256;-74
2023/09/19 13:18:47;;;;;;;1.20;1.10;;;24.00;39.60;;;;;;10265825;28;20779;-74
2023/09/19 13:23:54;;;;;;;2.57;1.20;;;24.10;37.90;;;;;;10263241;28;20231;-75
2023/09/19 13:28:58;;;;;;;1.20;1.10;;;24.30;38.20;;;;;;10264008;28;20237;-75
2023/09/19 13:34:02;;;;;;;1.20;1.20;;;24.30;38.20;;;;;;10257437;28;20238;-75
2023/09/19 13:39:08;;;;;;;1.53;1.30;;;24.30;37.70;;;;;;10261632;28;20646;-75
2023/09/19 13:44:12;;;;;;;1.10;1.10;;;24.30;37.70;;;;;;10261705;28;20223;-75
2023/09/19 13:49:17;;;;;;;1.00;1.00;;;24.30;37.90;;;;;;10261746;28;20220;-75
2023/09/19 13:54:24;;;;;;;2.80;1.20;;;24.30;37.60;;;;;;10260578;28;20235;-74
2023/09/19 13:59:28;;;;;;;1.17;1.17;;;24.40;37.00;;;;;;10261736;28;20231;-75
2023/09/19 14:04:31;;;;;;;2.53;1.30;;;24.50;37.70;;;;;;10262984;28;20338;-73
2023/09/19 14:09:36;;;;;;;1.40;1.30;;;24.60;37.70;;;;;;10260519;28;20236;-75
2023/09/19 14:14:39;;;;;;;0.93;0.93;;;24.70;36.70;;;;;;10269229;28;20242;-77
2023/09/19 14:19:43;;;;;;;1.40;1.30;;;24.70;37.60;;;;;;10259407;28;20289;-75
2023/09/19 14:24:50;;;;;;;1.10;1.07;;;24.80;37.40;;;;;;10264007;28;20810;-75
2023/09/19 14:29:53;;;;;;;1.20;1.20;;;25.00;36.80;;;;;;10266908;28;20230;-75
2023/09/19 14:34:57;;;;;;;1.17;1.03;;;25.10;36.40;;;;;;10262184;28;20227;-75
2023/09/19 14:40:08;;;;;;;1.27;1.13;;;25.20;35.90;;;;;;10268936;28;20318;-75
2023/09/19 14:45:14;;;;;;;1.40;1.30;;;25.20;34.90;;;;;;10263506;28;20311;-75
2023/09/19 14:50:18;;;;;;;1.20;1.20;;;25.20;35.20;;;;;;10272194;28;20238;-75
2023/09/19 14:55:23;;;;;;;1.10;1.10;;;25.30;34.80;;;;;;10271359;28;20232;-75
2023/09/19 15:00:27;;;;;;;1.20;1.20;;;25.30;34.40;;;;;;10268809;28;20327;-75
2023/09/19 15:05:30;;;;;;;1.03;1.00;;;25.20;34.90;;;;;;10262301;28;20227;-75
2023/09/19 15:10:35;;;;;;;2.30;1.50;;;25.30;34.70;;;;;;10261013;28;20228;-75
2023/09/19 15:15:39;;;;;;;3.10;1.50;;;25.20;33.60;;;;;;10266630;28;20641;-74
2023/09/19 15:20:44;;;;;;;2.77;1.50;;;25.30;34.40;;;;;;10264478;28;20593;-72
2023/09/19 15:25:51;;;;;;;1.20;1.10;;;25.30;33.50;;;;;;10260677;28;20232;-70
2023/09/19 15:30:59;;;;;;;1.13;1.10;;;25.30;33.10;;;;;;10256635;28;20224;-72
2023/09/19 15:36:04;;;;;;;3.90;1.30;;;25.20;33.30;;;;;;10261669;28;20239;-73
2023/09/19 15:41:13;;;;;;;1.30;1.20;;;25.30;34.00;;;;;;10262622;28;20235;-70
2023/09/19 15:46:17;;;;;;;3.20;1.67;;;25.20;33.10;;;;;;10262023;28;20259;-71
2023/09/19 15:51:20;;;;;;;1.77;1.40;;;25.30;34.00;;;;;;10263589;28;20961;-71
2023/09/19 15:56:26;;;;;;;9.53;2.13;;;25.40;33.90;;;;;;10261329;28;20319;-71
2023/09/19 16:01:30;;;;;;;2.50;1.60;;;25.40;32.80;;;;;;10261179;28;20343;-72
2023/09/19 16:06:33;;;;;;;1.57;1.23;;;25.40;33.70;;;;;;10254588;28;20240;-70
2023/09/19 16:11:38;;;;;;;1.50;1.40;;;25.50;33.80;;;;;;10264280;28;20224;-72
2023/09/19 16:16:41;;;;;;;1.43;1.33;;;25.50;33.00;;;;;;10261833;28;20235;-72
2023/09/19 16:21:44;;;;;;;1.60;1.27;;;25.50;33.20;;;;;;10260116;28;20776;-72
2023/09/19 16:26:50;;;;;;;1.27;1.20;;;25.50;33.10;;;;;;10258115;28;20267;-72
2023/09/19 16:31:53;;;;;;;1.27;1.17;;;25.40;32.30;;;;;;10265594;28;20305;-72
2023/09/19 16:36:56;;;;;;;3.20;1.50;;;25.40;33.00;;;;;;10260901;28;20736;-71
2023/09/19 16:42:01;;;;;;;1.80;1.30;;;25.40;32.90;;;;;;10263865;28;20734;-72
2023/09/19 16:47:17;;;;;;;1.50;1.40;;;25.30;33.20;;;;;;10261356;28;20305;-72
2023/09/19 16:52:21;;;;;;;1.40;1.30;;;25.30;33.70;;;;;;10265402;28;20732;-72
2023/09/19 16:57:25;;;;;;;1.00;1.00;;;25.20;33.70;;;;;;10262656;28;20888;-72
2023/09/19 17:02:29;;;;;;;2.67;1.60;;;25.20;33.90;;;;;;10261401;28;20231;-72
2023/09/19 17:07:33;;;;;;;1.50;1.40;;;25.20;34.20;;;;;;10256343;28;20677;-72
2023/09/19 17:12:38;;;;;;;1.50;1.40;;;25.10;34.30;;;;;;10255138;28;20236;-72
2023/09/19 17:17:41;;;;;;;1.67;1.57;;;25.00;34.40;;;;;;10262235;28;20315;-71
2023/09/19 17:22:45;;;;;;;2.00;1.73;;;24.90;34.20;;;;;;10262292;28;20244;-72
2023/09/19 17:27:50;;;;;;;2.30;1.90;;;24.90;34.40;;;;;;10259614;28;20238;-72
2023/09/19 17:32:54;;;;;;;2.07;1.87;;;24.80;34.30;;;;;;10256180;28;20231;-72
2023/09/19 17:37:57;;;;;;;1.77;1.67;;;24.70;34.40;;;;;;10265974;28;20233;-73
2023/09/19 17:43:03;;;;;;;2.33;1.77;;;24.70;34.50;;;;;;10266986;28;20639;-72
2023/09/19 17:48:07;;;;;;;2.43;2.00;;;24.50;34.00;;;;;;10269479;28;20762;-73
2023/09/19 17:53:10;;;;;;;1.90;1.80;;;24.40;34.20;;;;;;10268741;28;20251;-71
2023/09/19 17:58:14;;;;;;;1.90;1.70;;;24.20;34.30;;;;;;10269504;28;20274;-72
2023/09/19 18:03:18;;;;;;;1.87;1.70;;;24.10;34.30;;;;;;10266628;28;20235;-72
2023/09/19 18:08:22;;;;;;;3.03;2.23;;;23.90;34.30;;;;;;10270984;28;20228;-73
2023/09/19 18:13:26;;;;;;;2.13;1.80;;;23.80;35.20;;;;;;10272251;28;20315;-73
2023/09/19 18:18:30;;;;;;;3.47;2.40;;;23.80;34.80;;;;;;10265385;28;20232;-72
2023/09/19 18:23:33;;;;;;;3.63;2.93;;;23.60;34.60;;;;;;10268558;28;20299;-73
2023/09/19 18:28:38;;;;;;;10.70;5.97;;;23.50;34.60;;;;;;10269556;28;20679;-72
2023/09/19 18:33:42;;;;;;;10.07;5.53;;;23.30;34.40;;;;;;10258705;28;20242;-72
2023/09/19 18:38:47;;;;;;;17.97;4.80;;;23.00;34.30;;;;;;10257943;28;20238;-72
2023/09/19 18:43:52;;;;;;;5.37;3.60;;;22.60;34.70;;;;;;10257555;28;20239;-72
2023/09/19 18:48:55;;;;;;;3.90;3.07;;;22.50;35.40;;;;;;10254894;28;20283;-72
2023/09/19 18:54:00;;;;;;;5.43;2.70;;;22.30;35.30;;;;;;10257063;28;20232;-72
2023/09/19 18:59:20;;;;;;;3.30;2.97;;;22.10;35.20;;;;;;10256972;28;20223;-72
2023/09/19 19:04:26;;;;;;;3.20;2.90;;;21.80;35.70;;;;;;10255569;28;20231;-73
2023/09/19 19:09:30;;;;;;;2.90;2.40;;;21.60;35.90;;;;;;10260235;28;20290;-72
2023/09/19 19:14:35;;;;;;;2.67;2.43;;;21.40;36.30;;;;;;10259260;28;20240;-72
2023/09/19 19:19:39;;;;;;;2.33;2.13;;;21.40;36.60;;;;;;10256659;28;20330;-72
2023/09/19 19:24:42;;;;;;;2.97;2.40;;;21.40;36.60;;;;;;10258648;28;20323;-72
2023/09/19 19:29:48;;;;;;;2.47;2.07;;;21.50;36.70;;;;;;10256417;28;20240;-71
2023/09/19 19:34:51;;;;;;;2.43;2.23;;;21.50;36.90;;;;;;10258951;28;21173;-71
2023/09/19 19:39:54;;;;;;;2.47;2.23;;;21.50;36.60;;;;;;10257802;28;20718;-72
2023/09/19 19:45:01;;;;;;;2.40;1.70;;;21.30;36.20;;;;;;10253620;28;20228;-71
2023/09/19 19:50:07;;;;;;;2.20;2.00;;;21.00;36.80;;;;;;10246435;28;20219;-71
2023/09/19 19:55:10;;;;;;;1.97;1.80;;;20.70;37.10;;;;;;10246056;28;20263;-71
2023/09/19 20:00:20;;;;;;;2.30;2.07;;;20.60;37.00;;;;;;10250538;28;20748;-71
2023/09/19 20:05:24;;;;;;;2.40;2.20;;;20.60;37.00;;;;;;10249550;28;20236;-71
2023/09/19 20:10:27;;;;;;;2.60;2.40;;;20.50;36.90;;;;;;10257882;28;20885;-71
2023/09/19 20:15:33;;;;;;;2.77;2.20;;;20.40;36.90;;;;;;10249852;28;20262;-71
2023/09/19 20:20:37;;;;;;;2.27;2.10;;;20.20;37.20;;;;;;10248106;28;20240;-72
2023/09/19 20:25:40;;;;;;;2.20;2.00;;;20.10;37.40;;;;;;10245232;28;20238;-71
2023/09/19 20:30:45;;;;;;;2.30;2.10;;;20.10;37.70;;;;;;10252462;28;20954;-71
2023/09/19 20:35:48;;;;;;;2.63;2.10;;;20.10;38.10;;;;;;10252047;28;20334;-71
2023/09/19 20:40:52;;;;;;;3.10;2.50;;;20.20;38.00;;;;;;10248248;28;20236;-71
2023/09/19 20:45:56;;;;;;;3.00;2.57;;;20.20;37.70;;;;;;10247054;28;20287;-71
2023/09/19 20:51:07;;;;;;;2.53;2.33;;;20.10;37.80;;;;;;10245168;28;20232;-71
2023/09/19 20:56:12;;;;;;;3.30;2.63;;;20.00;38.40;;;;;;10248893;28;20238;-71
2023/09/19 21:01:17;;;;;;;2.33;2.17;;;19.90;37.70;;;;;;10249129;28;20232;-71
2023/09/19 21:06:20;;;;;;;3.43;2.17;;;19.80;38.10;;;;;;10247378;28;20252;-71
2023/09/19 21:11:26;;;;;;;2.30;2.10;;;19.70;37.90;;;;;;10251786;28;20245;-72
2023/09/19 21:16:31;;;;;;;1.83;1.73;;;19.60;38.10;;;;;;10257155;28;20656;-72
2023/09/19 21:21:35;;;;;;;2.43;2.10;;;19.60;38.60;;;;;;10255905;28;20254;-71
2023/09/19 21:26:38;;;;;;;2.20;2.10;;;19.70;38.40;;;;;;10259584;28;20733;-72
2023/09/19 21:31:43;;;;;;;2.50;2.30;;;19.70;38.20;;;;;;10252946;28;20234;-71
2023/09/19 21:36:46;;;;;;;4.97;2.43;;;19.70;38.30;;;;;;10258715;28;20274;-71
2023/09/19 21:41:50;;;;;;;2.57;2.37;;;19.60;38.00;;;;;;10251407;28;20243;-71
2023/09/19 21:46:56;;;;;;;2.70;2.43;;;19.50;38.20;;;;;;10250201;28;20769;-71
2023/09/19 21:51:59;;;;;;;2.30;2.20;;;19.40;38.80;;;;;;10253455;28;20932;-72
2023/09/19 21:57:02;;;;;;;2.17;1.97;;;19.40;38.60;;;;;;10249192;28;20335;-72
2023/09/19 22:02:13;;;;;;;2.50;2.30;;;19.30;38.60;;;;;;10257615;28;20228;-72
2023/09/19 22:07:17;;;;;;;2.30;2.10;;;19.30;38.90;;;;;;10258029;28;20298;-71
2023/09/19 22:12:25;;;;;;;2.37;2.27;;;19.30;38.50;;;;;;10254905;28;20235;-71
2023/09/19 22:17:31;;;;;;;2.43;2.10;;;19.20;38.90;;;;;;10264505;28;20701;-72
2023/09/19 22:22:37;;;;;;;2.00;1.90;;;19.10;39.00;;;;;;10251210;28;20282;-71
2023/09/19 22:27:43;;;;;;;2.20;2.10;;;19.10;38.90;;;;;;10263163;28;20232;-71
2023/09/19 22:32:53;;;;;;;2.80;2.30;;;19.10;38.90;;;;;;10260043;28;20231;-71
2023/09/19 22:38:00;;;;;;;3.67;2.17;;;19.10;39.10;;;;;;10253934;28;20220;-72
2023/09/19 22:43:18;;;;;;;2.50;2.30;;;19.00;38.90;;;;;;10251500;28;20238;-71
2023/09/19 22:48:26;;;;;;;2.50;2.27;;;18.90;38.90;;;;;;10255750;28;21386;-71
2023/09/19 22:53:33;;;;;;;1.90;1.80;;;18.80;39.50;;;;;;10259212;28;20238;-72
2023/09/19 22:58:36;;;;;;;2.03;1.93;;;18.60;39.20;;;;;;10260288;28;20666;-71
2023/09/19 23:03:42;;;;;;;2.20;2.00;;;18.50;39.40;;;;;;10258115;28;20290;-71
2023/09/19 23:08:46;;;;;;;2.47;2.27;;;18.50;39.90;;;;;;10258155;28;20644;-72
2023/09/19 23:13:52;;;;;;;2.37;2.17;;;18.40;39.70;;;;;;10260222;28;20235;-71
2023/09/19 23:18:57;;;;;;;2.33;2.13;;;18.40;39.90;;;;;;10259875;28;20226;-71
2023/09/19 23:24:01;;;;;;;2.50;2.30;;;18.40;40.00;;;;;;10261324;28;20281;-71
2023/09/19 23:29:07;;;;;;;3.70;2.13;;;18.40;39.80;;;;;;10252237;28;20228;-72
2023/09/19 23:34:13;;;;;;;1.80;1.70;;;18.40;39.80;;;;;;10264920;28;20290;-72
2023/09/19 23:39:18;;;;;;;2.60;2.07;;;18.40;40.00;;;;;;10261140;28;20255;-72
2023/09/19 23:44:23;;;;;;;1.97;1.77;;;18.50;39.80;;;;;;10254890;28;20239;-72
2023/09/19 23:49:32;;;;;;;2.13;1.93;;;18.40;39.50;;;;;;10264766;28;20324;-72
2023/09/19 23:54:39;;;;;;;1.80;1.70;;;18.40;39.80;;;;;;10256246;28;20245;-72
2023/09/19 23:59:43;;;;;;;2.10;2.00;;;18.40;39.70;;;;;;10262850;28;20228;-72
